sensor_id;sensor_type;location;lat;lon;timestamp;temperature;humidity
14682;DHT22;7429;52.498;13.480;2023-11-21T00:00:28;8.30;99.90
14682;DHT22;7429;52.498;13.480;2023-11-21T00:14:38;8.10;99.90
14682;DHT22;7429;52.498;13.480;2023-11-21T00:34:02;7.70;99.90
14682;DHT22;7429;52.498;13.480;2023-11-21T00:37:12;7.60;99.90
14682;DHT22;7429;52.498;13.480;2023-11-21T00:40:16;7.50;99.90
14682;DHT22;7429;52.498;13.480;2023-11-21T00:43:21;7.50;99.90
14682;DHT22;7429;52.498;13.480;2023-11-21T00:46:24;7.50;99.90
14682;DHT22;7429;52.498;13.480;2023-11-21T00:49:30;7.50;99.90
14682;DHT22;7429;52.498;13.480;2023-11-21T00:52:34;7.40;99.90
14682;DHT22;7429;52.498;13.480;2023-11-21T00:55:37;7.40;99.90
14682;DHT22;7429;52.498;13.480;2023-11-21T00:58:42;7.30;99.90
14682;DHT22;7429;52.498;13.480;2023-11-21T01:01:45;7.30;99.90
14682;DHT22;7429;52.498;13.480;2023-11-21T01:04:51;7.30;99.90
14682;DHT22;7429;52.498;13.480;2023-11-21T01:07:54;7.20;99.90
14682;DHT22;7429;52.498;13.480;2023-11-21T01:10:57;7.10;99.90
14682;DHT22;7429;52.498;13.480;2023-11-21T01:14:01;7.00;99.90
14682;DHT22;7429;52.498;13.480;2023-11-21T01:17:05;7.00;99.90
14682;DHT22;7429;52.498;13.480;2023-11-21T01:20:11;7.00;99.90
14682;DHT22;7429;52.498;13.480;2023-11-21T01:23:15;6.90;99.90
14682;DHT22;7429;52.498;13.480;2023-11-21T01:26:18;6.80;99.90
14682;DHT22;7429;52.498;13.480;2023-11-21T01:29:22;6.80;99.90
14682;DHT22;7429;52.498;13.480;2023-11-21T01:32:25;6.70;99.90
14682;DHT22;7429;52.498;13.480;2023-11-21T01:35:29;6.70;99.90
14682;DHT22;7429;52.498;13.480;2023-11-21T01:38:33;6.60;99.90
14682;DHT22;7429;52.498;13.480;2023-11-21T01:41:36;6.70;99.90
14682;DHT22;7429;52.498;13.480;2023-11-21T01:44:42;6.60;99.90
14682;DHT22;7429;52.498;13.480;2023-11-21T01:47:45;6.60;99.90
14682;DHT22;7429;52.498;13.480;2023-11-21T01:50:50;6.60;99.90
14682;DHT22;7429;52.498;13.480;2023-11-21T01:53:54;6.70;99.90
14682;DHT22;7429;52.498;13.480;2023-11-21T01:57:01;6.70;99.90
14682;DHT22;7429;52.498;13.480;2023-11-21T02:00:09;6.80;99.90
14682;DHT22;7429;52.498;13.480;2023-11-21T02:03:18;6.70;99.90
14682;DHT22;7429;52.498;13.480;2023-11-21T02:06:24;6.70;99.90
14682;DHT22;7429;52.498;13.480;2023-11-21T02:09:30;6.70;99.90
14682;DHT22;7429;52.498;13.480;2023-11-21T02:12:33;6.60;99.90
14682;DHT22;7429;52.498;13.480;2023-11-21T02:15:39;6.60;99.90
14682;DHT22;7429;52.498;13.480;2023-11-21T02:18:43;6.60;99.90
14682;DHT22;7429;52.498;13.480;2023-11-21T02:21:47;6.50;99.90
14682;DHT22;7429;52.498;13.480;2023-11-21T02:24:53;6.50;99.90
14682;DHT22;7429;52.498;13.480;2023-11-21T02:27:56;6.50;99.90
14682;DHT22;7429;52.498;13.480;2023-11-21T02:31:02;6.40;99.90
14682;DHT22;7429;52.498;13.480;2023-11-21T02:34:07;6.40;99.90
14682;DHT22;7429;52.498;13.480;2023-11-21T02:37:10;6.30;99.90
14682;DHT22;7429;52.498;13.480;2023-11-21T02:40:15;6.30;99.90
14682;DHT22;7429;52.498;13.480;2023-11-21T02:43:20;6.40;99.90
14682;DHT22;7429;52.498;13.480;2023-11-21T02:46:23;6.40;99.90
14682;DHT22;7429;52.498;13.480;2023-11-21T02:49:26;6.40;99.90
14682;DHT22;7429;52.498;13.480;2023-11-21T02:52:30;6.30;99.90
14682;DHT22;7429;52.498;13.480;2023-11-21T02:55:36;6.20;99.90
14682;DHT22;7429;52.498;13.480;2023-11-21T02:58:41;6.30;99.90
14682;DHT22;7429;52.498;13.480;2023-11-21T03:01:45;6.20;99.90
14682;DHT22;7429;52.498;13.480;2023-11-21T03:04:48;6.20;99.90
14682;DHT22;7429;52.498;13.480;2023-11-21T03:07:51;6.20;99.90
14682;DHT22;7429;52.498;13.480;2023-11-21T03:10:56;6.20;99.90
14682;DHT22;7429;52.498;13.480;2023-11-21T03:13:59;6.20;99.90
14682;DHT22;7429;52.498;13.480;2023-11-21T03:17:03;6.20;99.90
14682;DHT22;7429;52.498;13.480;2023-11-21T03:20:09;6.20;99.90
14682;DHT22;7429;52.498;13.480;2023-11-21T03:23:15;6.20;99.90
14682;DHT22;7429;52.498;13.480;2023-11-21T03:26:20;6.10;99.90
14682;DHT22;7429;52.498;13.480;2023-11-21T03:29:23;6.10;99.90
14682;DHT22;7429;52.498;13.480;2023-11-21T03:32:49;6.10;99.90
14682;DHT22;7429;52.498;13.480;2023-11-21T03:35:52;6.10;99.90
14682;DHT22;7429;52.498;13.480;2023-11-21T03:38:55;6.00;99.90
14682;DHT22;7429;52.498;13.480;2023-11-21T03:41:59;6.00;99.90
14682;DHT22;7429;52.498;13.480;2023-11-21T03:45:03;6.00;99.90
14682;DHT22;7429;52.498;13.480;2023-11-21T03:48:06;6.10;99.90
14682;DHT22;7429;52.498;13.480;2023-11-21T03:51:12;6.10;99.90
14682;DHT22;7429;52.498;13.480;2023-11-21T03:54:15;6.00;99.90
14682;DHT22;7429;52.498;13.480;2023-11-21T03:57:21;5.90;99.90
14682;DHT22;7429;52.498;13.480;2023-11-21T04:00:24;5.80;99.90
14682;DHT22;7429;52.498;13.480;2023-11-21T04:03:28;5.80;99.90
14682;DHT22;7429;52.498;13.480;2023-11-21T04:06:32;5.80;99.90
14682;DHT22;7429;52.498;13.480;2023-11-21T04:09:44;5.90;99.90
14682;DHT22;7429;52.498;13.480;2023-11-21T04:12:48;5.80;99.90
14682;DHT22;7429;52.498;13.480;2023-11-21T04:15:54;5.90;99.90
14682;DHT22;7429;52.498;13.480;2023-11-21T04:18:58;5.90;99.90
14682;DHT22;7429;52.498;13.480;2023-11-21T04:22:02;5.90;99.90
14682;DHT22;7429;52.498;13.480;2023-11-21T04:25:07;5.90;99.90
14682;DHT22;7429;52.498;13.480;2023-11-21T04:28:14;5.80;99.90
14682;DHT22;7429;52.498;13.480;2023-11-21T04:31:19;5.80;99.90
14682;DHT22;7429;52.498;13.480;2023-11-21T04:34:22;5.80;99.90
14682;DHT22;7429;52.498;13.480;2023-11-21T04:37:32;5.90;99.90
14682;DHT22;7429;52.498;13.480;2023-11-21T04:40:38;5.80;99.90
14682;DHT22;7429;52.498;13.480;2023-11-21T04:43:42;5.80;99.90
14682;DHT22;7429;52.498;13.480;2023-11-21T04:46:45;5.70;99.90
14682;DHT22;7429;52.498;13.480;2023-11-21T04:49:49;5.80;99.90
14682;DHT22;7429;52.498;13.480;2023-11-21T04:52:52;5.80;99.90
14682;DHT22;7429;52.498;13.480;2023-11-21T04:55:55;5.80;99.90
14682;DHT22;7429;52.498;13.480;2023-11-21T04:59:00;5.70;99.90
14682;DHT22;7429;52.498;13.480;2023-11-21T05:02:06;5.70;99.90
14682;DHT22;7429;52.498;13.480;2023-11-21T05:05:21;5.70;99.90
14682;DHT22;7429;52.498;13.480;2023-11-21T05:08:27;5.70;99.90
14682;DHT22;7429;52.498;13.480;2023-11-21T05:11:30;5.60;99.90
14682;DHT22;7429;52.498;13.480;2023-11-21T05:14:36;5.60;99.90
14682;DHT22;7429;52.498;13.480;2023-11-21T05:17:40;5.60;99.90
14682;DHT22;7429;52.498;13.480;2023-11-21T05:20:45;5.50;99.90
14682;DHT22;7429;52.498;13.480;2023-11-21T05:23:49;5.60;99.90
14682;DHT22;7429;52.498;13.480;2023-11-21T05:26:52;5.60;99.90
14682;DHT22;7429;52.498;13.480;2023-11-21T05:29:58;5.50;99.90
14682;DHT22;7429;52.498;13.480;2023-11-21T05:33:04;5.60;99.90
14682;DHT22;7429;52.498;13.480;2023-11-21T05:36:11;5.60;99.90
14682;DHT22;7429;52.498;13.480;2023-11-21T05:39:16;5.60;99.90
14682;DHT22;7429;52.498;13.480;2023-11-21T05:42:21;5.50;99.90
14682;DHT22;7429;52.498;13.480;2023-11-21T05:45:29;5.60;99.90
14682;DHT22;7429;52.498;13.480;2023-11-21T05:48:35;5.50;99.90
14682;DHT22;7429;52.498;13.480;2023-11-21T05:51:39;5.50;99.90
14682;DHT22;7429;52.498;13.480;2023-11-21T05:54:42;5.50;99.90
14682;DHT22;7429;52.498;13.480;2023-11-21T05:57:45;5.50;99.90
14682;DHT22;7429;52.498;13.480;2023-11-21T06:00:50;5.50;99.90
14682;DHT22;7429;52.498;13.480;2023-11-21T06:03:54;5.60;99.90
14682;DHT22;7429;52.498;13.480;2023-11-21T06:06:57;5.50;99.90
14682;DHT22;7429;52.498;13.480;2023-11-21T06:10:04;5.40;99.90
14682;DHT22;7429;52.498;13.480;2023-11-21T06:13:11;5.40;99.90
14682;DHT22;7429;52.498;13.480;2023-11-21T06:16:15;5.40;99.90
14682;DHT22;7429;52.498;13.480;2023-11-21T06:19:22;5.40;99.90
14682;DHT22;7429;52.498;13.480;2023-11-21T06:22:26;5.30;99.90
14682;DHT22;7429;52.498;13.480;2023-11-21T06:25:29;5.40;99.90
14682;DHT22;7429;52.498;13.480;2023-11-21T06:28:35;5.40;99.90
14682;DHT22;7429;52.498;13.480;2023-11-21T06:31:39;5.40;99.90
14682;DHT22;7429;52.498;13.480;2023-11-21T06:34:43;5.40;99.90
14682;DHT22;7429;52.498;13.480;2023-11-21T06:37:56;5.40;99.90
14682;DHT22;7429;52.498;13.480;2023-11-21T06:41:01;5.40;99.90
14682;DHT22;7429;52.498;13.480;2023-11-21T06:44:13;5.40;99.90
14682;DHT22;7429;52.498;13.480;2023-11-21T06:47:17;5.50;99.90
14682;DHT22;7429;52.498;13.480;2023-11-21T06:50:22;5.50;99.90
14682;DHT22;7429;52.498;13.480;2023-11-21T06:53:25;5.50;99.90
14682;DHT22;7429;52.498;13.480;2023-11-21T06:56:28;5.40;99.90
14682;DHT22;7429;52.498;13.480;2023-11-21T06:59:34;5.40;99.90
14682;DHT22;7429;52.498;13.480;2023-11-21T07:02:41;5.40;99.90
14682;DHT22;7429;52.498;13.480;2023-11-21T07:05:46;5.40;99.90
14682;DHT22;7429;52.498;13.480;2023-11-21T07:08:49;5.50;99.90
14682;DHT22;7429;52.498;13.480;2023-11-21T07:11:52;5.50;99.90
14682;DHT22;7429;52.498;13.480;2023-11-21T07:14:56;5.40;99.90
14682;DHT22;7429;52.498;13.480;2023-11-21T07:18:00;5.30;99.90
14682;DHT22;7429;52.498;13.480;2023-11-21T07:21:07;5.20;99.90
14682;DHT22;7429;52.498;13.480;2023-11-21T07:24:11;5.20;99.90
14682;DHT22;7429;52.498;13.480;2023-11-21T07:27:15;5.20;99.90
14682;DHT22;7429;52.498;13.480;2023-11-21T07:30:21;5.20;99.90
14682;DHT22;7429;52.498;13.480;2023-11-21T07:33:26;5.20;99.90
14682;DHT22;7429;52.498;13.480;2023-11-21T07:36:30;5.20;99.90
14682;DHT22;7429;52.498;13.480;2023-11-21T07:39:42;5.20;99.90
14682;DHT22;7429;52.498;13.480;2023-11-21T07:42:54;5.10;99.90
14682;DHT22;7429;52.498;13.480;2023-11-21T07:46:09;5.10;99.90
14682;DHT22;7429;52.498;13.480;2023-11-21T07:49:19;5.10;99.90
14682;DHT22;7429;52.498;13.480;2023-11-21T07:52:48;5.20;99.90
14682;DHT22;7429;52.498;13.480;2023-11-21T07:56:43;5.20;99.90
14682;DHT22;7429;52.498;13.480;2023-11-21T07:59:50;5.10;99.90
14682;DHT22;7429;52.498;13.480;2023-11-21T08:02:57;5.10;99.90
14682;DHT22;7429;52.498;13.480;2023-11-21T08:06:01;5.10;99.90
14682;DHT22;7429;52.498;13.480;2023-11-21T08:09:10;5.10;99.90
14682;DHT22;7429;52.498;13.480;2023-11-21T08:12:17;5.10;99.90
14682;DHT22;7429;52.498;13.480;2023-11-21T08:15:23;5.20;99.90
14682;DHT22;7429;52.498;13.480;2023-11-21T08:18:26;5.10;99.90
14682;DHT22;7429;52.498;13.480;2023-11-21T08:21:31;5.10;99.90
14682;DHT22;7429;52.498;13.480;2023-11-21T08:24:34;5.10;99.90
14682;DHT22;7429;52.498;13.480;2023-11-21T08:27:39;5.10;99.90
14682;DHT22;7429;52.498;13.480;2023-11-21T08:30:42;5.10;99.90
14682;DHT22;7429;52.498;13.480;2023-11-21T08:33:46;5.10;99.90
14682;DHT22;7429;52.498;13.480;2023-11-21T08:36:50;5.00;99.90
14682;DHT22;7429;52.498;13.480;2023-11-21T08:39:53;5.10;99.90
14682;DHT22;7429;52.498;13.480;2023-11-21T08:43:02;5.10;99.90
14682;DHT22;7429;52.498;13.480;2023-11-21T08:46:09;5.10;99.90
14682;DHT22;7429;52.498;13.480;2023-11-21T08:49:15;5.10;99.90
14682;DHT22;7429;52.498;13.480;2023-11-21T08:52:22;5.00;99.90
14682;DHT22;7429;52.498;13.480;2023-11-21T08:55:27;5.10;99.90
14682;DHT22;7429;52.498;13.480;2023-11-21T08:58:31;5.10;99.90
14682;DHT22;7429;52.498;13.480;2023-11-21T09:01:34;5.20;99.90
14682;DHT22;7429;52.498;13.480;2023-11-21T09:04:38;5.10;99.90
14682;DHT22;7429;52.498;13.480;2023-11-21T09:07:45;5.10;99.90
14682;DHT22;7429;52.498;13.480;2023-11-21T09:10:50;5.10;99.90
14682;DHT22;7429;52.498;13.480;2023-11-21T09:13:56;5.10;99.90
14682;DHT22;7429;52.498;13.480;2023-11-21T09:17:00;5.10;99.90
14682;DHT22;7429;52.498;13.480;2023-11-21T09:20:04;5.10;99.90
14682;DHT22;7429;52.498;13.480;2023-11-21T09:23:11;5.00;99.90
14682;DHT22;7429;52.498;13.480;2023-11-21T09:26:14;4.90;99.90
14682;DHT22;7429;52.498;13.480;2023-11-21T09:29:18;5.00;99.90
14682;DHT22;7429;52.498;13.480;2023-11-21T09:32:21;5.00;99.90
14682;DHT22;7429;52.498;13.480;2023-11-21T09:35:24;4.90;99.90
14682;DHT22;7429;52.498;13.480;2023-11-21T09:38:28;4.90;99.90
14682;DHT22;7429;52.498;13.480;2023-11-21T09:41:43;4.80;99.90
14682;DHT22;7429;52.498;13.480;2023-11-21T09:44:55;4.90;99.90
14682;DHT22;7429;52.498;13.480;2023-11-21T09:48:05;4.90;99.90
14682;DHT22;7429;52.498;13.480;2023-11-21T09:51:09;5.00;99.90
14682;DHT22;7429;52.498;13.480;2023-11-21T09:54:15;5.00;99.90
14682;DHT22;7429;52.498;13.480;2023-11-21T09:57:19;5.00;99.90
14682;DHT22;7429;52.498;13.480;2023-11-21T10:00:24;4.90;99.90
14682;DHT22;7429;52.498;13.480;2023-11-21T10:03:29;4.90;99.90
14682;DHT22;7429;52.498;13.480;2023-11-21T10:06:32;4.90;99.90
14682;DHT22;7429;52.498;13.480;2023-11-21T10:09:38;5.00;99.90
14682;DHT22;7429;52.498;13.480;2023-11-21T10:12:41;4.90;99.90
14682;DHT22;7429;52.498;13.480;2023-11-21T10:15:50;5.00;99.90
14682;DHT22;7429;52.498;13.480;2023-11-21T10:18:55;4.90;99.90
14682;DHT22;7429;52.498;13.480;2023-11-21T10:22:12;4.90;99.90
14682;DHT22;7429;52.498;13.480;2023-11-21T10:25:18;4.90;99.90
14682;DHT22;7429;52.498;13.480;2023-11-21T10:28:22;4.90;99.90
14682;DHT22;7429;52.498;13.480;2023-11-21T10:31:27;4.90;99.90
14682;DHT22;7429;52.498;13.480;2023-11-21T10:34:30;4.90;99.90
14682;DHT22;7429;52.498;13.480;2023-11-21T10:37:33;4.90;99.90
14682;DHT22;7429;52.498;13.480;2023-11-21T10:40:39;4.90;99.90
14682;DHT22;7429;52.498;13.480;2023-11-21T10:43:43;4.90;99.90
14682;DHT22;7429;52.498;13.480;2023-11-21T10:46:47;4.80;99.90
14682;DHT22;7429;52.498;13.480;2023-11-21T10:49:52;4.80;99.90
14682;DHT22;7429;52.498;13.480;2023-11-21T10:52:55;4.70;99.90
14682;DHT22;7429;52.498;13.480;2023-11-21T10:56:06;4.70;99.90
14682;DHT22;7429;52.498;13.480;2023-11-21T10:59:12;4.70;99.90
14682;DHT22;7429;52.498;13.480;2023-11-21T11:02:23;4.70;99.90
14682;DHT22;7429;52.498;13.480;2023-11-21T11:05:30;4.80;99.90
14682;DHT22;7429;52.498;13.480;2023-11-21T11:08:35;4.90;99.90
14682;DHT22;7429;52.498;13.480;2023-11-21T11:11:41;4.90;99.90
14682;DHT22;7429;52.498;13.480;2023-11-21T11:14:45;4.90;99.90
14682;DHT22;7429;52.498;13.480;2023-11-21T11:17:50;4.90;99.90
14682;DHT22;7429;52.498;13.480;2023-11-21T11:20:53;4.80;99.90
14682;DHT22;7429;52.498;13.480;2023-11-21T11:24:11;4.70;99.90
14682;DHT22;7429;52.498;13.480;2023-11-21T11:27:34;4.70;99.90
14682;DHT22;7429;52.498;13.480;2023-11-21T11:30:47;4.60;99.90
14682;DHT22;7429;52.498;13.480;2023-11-21T11:34:01;4.60;99.90
14682;DHT22;7429;52.498;13.480;2023-11-21T11:37:12;4.50;99.90
14682;DHT22;7429;52.498;13.480;2023-11-21T11:40:15;4.50;99.90
14682;DHT22;7429;52.498;13.480;2023-11-21T11:43:26;4.50;99.90
14682;DHT22;7429;52.498;13.480;2023-11-21T11:46:42;4.50;99.90
14682;DHT22;7429;52.498;13.480;2023-11-21T11:49:59;4.50;99.90
14682;DHT22;7429;52.498;13.480;2023-11-21T11:53:13;4.50;99.90
14682;DHT22;7429;52.498;13.480;2023-11-21T11:56:26;4.40;99.90
14682;DHT22;7429;52.498;13.480;2023-11-21T12:00:06;4.50;99.90
14682;DHT22;7429;52.498;13.480;2023-11-21T12:03:15;4.50;99.90
14682;DHT22;7429;52.498;13.480;2023-11-21T12:06:32;4.40;99.90
14682;DHT22;7429;52.498;13.480;2023-11-21T12:09:37;4.40;99.90
14682;DHT22;7429;52.498;13.480;2023-11-21T12:12:47;4.40;99.90
14682;DHT22;7429;52.498;13.480;2023-11-21T12:15:53;4.40;99.90
14682;DHT22;7429;52.498;13.480;2023-11-21T12:18:56;4.40;99.90
14682;DHT22;7429;52.498;13.480;2023-11-21T12:22:00;4.40;99.90
14682;DHT22;7429;52.498;13.480;2023-11-21T12:25:04;4.50;99.90
14682;DHT22;7429;52.498;13.480;2023-11-21T12:28:08;4.50;99.90
14682;DHT22;7429;52.498;13.480;2023-11-21T12:31:14;4.40;99.90
14682;DHT22;7429;52.498;13.480;2023-11-21T12:34:23;4.40;99.90
14682;DHT22;7429;52.498;13.480;2023-11-21T12:37:26;4.40;99.90
14682;DHT22;7429;52.498;13.480;2023-11-21T12:40:29;4.40;99.90
14682;DHT22;7429;52.498;13.480;2023-11-21T12:43:33;4.30;99.90
14682;DHT22;7429;52.498;13.480;2023-11-21T12:46:42;4.40;99.90
14682;DHT22;7429;52.498;13.480;2023-11-21T12:49:47;4.40;99.90
14682;DHT22;7429;52.498;13.480;2023-11-21T12:52:51;4.50;99.90
14682;DHT22;7429;52.498;13.480;2023-11-21T12:55:56;4.50;99.90
14682;DHT22;7429;52.498;13.480;2023-11-21T12:59:00;4.40;99.90
14682;DHT22;7429;52.498;13.480;2023-11-21T13:02:08;4.40;99.90
14682;DHT22;7429;52.498;13.480;2023-11-21T13:05:12;4.30;99.90
14682;DHT22;7429;52.498;13.480;2023-11-21T13:08:25;4.30;99.90
14682;DHT22;7429;52.498;13.480;2023-11-21T13:11:28;4.30;99.90
14682;DHT22;7429;52.498;13.480;2023-11-21T13:14:34;4.20;99.90
14682;DHT22;7429;52.498;13.480;2023-11-21T13:17:41;4.30;99.90
14682;DHT22;7429;52.498;13.480;2023-11-21T13:20:46;4.20;99.90
14682;DHT22;7429;52.498;13.480;2023-11-21T13:23:49;4.30;99.90
14682;DHT22;7429;52.498;13.480;2023-11-21T13:26:55;4.20;99.90
14682;DHT22;7429;52.498;13.480;2023-11-21T13:29:59;4.20;99.90
14682;DHT22;7429;52.498;13.480;2023-11-21T13:33:06;4.20;99.90
14682;DHT22;7429;52.498;13.480;2023-11-21T13:36:10;4.20;99.90
14682;DHT22;7429;52.498;13.480;2023-11-21T13:39:16;4.10;99.90
14682;DHT22;7429;52.498;13.480;2023-11-21T13:42:23;4.10;99.90
14682;DHT22;7429;52.498;13.480;2023-11-21T13:45:30;4.00;99.90
14682;DHT22;7429;52.498;13.480;2023-11-21T13:48:35;4.00;99.90
14682;DHT22;7429;52.498;13.480;2023-11-21T13:51:44;4.00;99.90
14682;DHT22;7429;52.498;13.480;2023-11-21T13:54:50;3.90;99.90
14682;DHT22;7429;52.498;13.480;2023-11-21T13:57:55;3.90;99.90
14682;DHT22;7429;52.498;13.480;2023-11-21T14:01:06;3.90;99.90
14682;DHT22;7429;52.498;13.480;2023-11-21T14:04:20;3.90;99.90
14682;DHT22;7429;52.498;13.480;2023-11-21T14:07:44;3.80;99.90
14682;DHT22;7429;52.498;13.480;2023-11-21T14:10:50;3.80;99.90
14682;DHT22;7429;52.498;13.480;2023-11-21T14:13:57;3.80;99.90
14682;DHT22;7429;52.498;13.480;2023-11-21T14:17:03;3.80;99.90
14682;DHT22;7429;52.498;13.480;2023-11-21T14:20:12;3.80;99.90
14682;DHT22;7429;52.498;13.480;2023-11-21T14:23:19;3.70;99.90
14682;DHT22;7429;52.498;13.480;2023-11-21T14:26:23;3.60;99.90
14682;DHT22;7429;52.498;13.480;2023-11-21T14:29:27;3.50;99.90
14682;DHT22;7429;52.498;13.480;2023-11-21T14:32:31;3.50;99.90
14682;DHT22;7429;52.498;13.480;2023-11-21T14:35:36;3.50;99.90
14682;DHT22;7429;52.498;13.480;2023-11-21T14:38:39;3.50;99.90
14682;DHT22;7429;52.498;13.480;2023-11-21T14:41:42;3.40;99.90
14682;DHT22;7429;52.498;13.480;2023-11-21T14:44:47;3.30;99.90
14682;DHT22;7429;52.498;13.480;2023-11-21T14:47:53;3.40;99.90
14682;DHT22;7429;52.498;13.480;2023-11-21T14:51:06;3.30;99.90
14682;DHT22;7429;52.498;13.480;2023-11-21T14:54:27;3.20;99.90
14682;DHT22;7429;52.498;13.480;2023-11-21T14:57:43;3.20;99.90
14682;DHT22;7429;52.498;13.480;2023-11-21T15:00:51;3.20;99.90
14682;DHT22;7429;52.498;13.480;2023-11-21T15:03:59;3.10;99.90
14682;DHT22;7429;52.498;13.480;2023-11-21T15:07:04;3.10;99.90
14682;DHT22;7429;52.498;13.480;2023-11-21T15:10:07;3.10;99.90
14682;DHT22;7429;52.498;13.480;2023-11-21T15:13:16;3.10;99.90
14682;DHT22;7429;52.498;13.480;2023-11-21T15:16:18;3.10;99.90
14682;DHT22;7429;52.498;13.480;2023-11-21T15:19:22;3.10;99.90
14682;DHT22;7429;52.498;13.480;2023-11-21T15:22:30;3.10;99.90
14682;DHT22;7429;52.498;13.480;2023-11-21T15:25:35;3.20;99.90
14682;DHT22;7429;52.498;13.480;2023-11-21T15:28:38;3.20;99.90
14682;DHT22;7429;52.498;13.480;2023-11-21T15:31:41;3.20;99.90
14682;DHT22;7429;52.498;13.480;2023-11-21T15:34:50;3.10;99.90
14682;DHT22;7429;52.498;13.480;2023-11-21T15:37:55;3.20;99.90
14682;DHT22;7429;52.498;13.480;2023-11-21T15:41:01;3.10;99.90
14682;DHT22;7429;52.498;13.480;2023-11-21T15:44:05;3.10;99.90
14682;DHT22;7429;52.498;13.480;2023-11-21T15:47:12;3.00;99.90
14682;DHT22;7429;52.498;13.480;2023-11-21T15:50:18;3.00;99.90
14682;DHT22;7429;52.498;13.480;2023-11-21T15:53:22;3.00;99.90
14682;DHT22;7429;52.498;13.480;2023-11-21T15:56:25;3.00;99.90
14682;DHT22;7429;52.498;13.480;2023-11-21T15:59:28;2.90;99.90
14682;DHT22;7429;52.498;13.480;2023-11-21T16:02:37;2.90;99.90
14682;DHT22;7429;52.498;13.480;2023-11-21T16:05:41;2.90;99.90
14682;DHT22;7429;52.498;13.480;2023-11-21T16:08:45;2.80;99.90
14682;DHT22;7429;52.498;13.480;2023-11-21T16:11:50;2.80;99.90
14682;DHT22;7429;52.498;13.480;2023-11-21T16:14:58;2.80;99.90
14682;DHT22;7429;52.498;13.480;2023-11-21T16:18:42;2.90;99.90
14682;DHT22;7429;52.498;13.480;2023-11-21T16:21:49;2.80;99.90
14682;DHT22;7429;52.498;13.480;2023-11-21T16:24:53;2.80;99.90
14682;DHT22;7429;52.498;13.480;2023-11-21T16:27:56;2.80;99.90
14682;DHT22;7429;52.498;13.480;2023-11-21T16:31:05;2.80;99.90
14682;DHT22;7429;52.498;13.480;2023-11-21T16:34:12;2.70;99.90
14682;DHT22;7429;52.498;13.480;2023-11-21T16:37:21;2.70;99.90
14682;DHT22;7429;52.498;13.480;2023-11-21T16:40:26;2.70;99.90
14682;DHT22;7429;52.498;13.480;2023-11-21T16:43:29;2.70;99.90
14682;DHT22;7429;52.498;13.480;2023-11-21T16:46:33;2.70;99.90
14682;DHT22;7429;52.498;13.480;2023-11-21T16:49:37;2.70;99.90
14682;DHT22;7429;52.498;13.480;2023-11-21T16:52:42;2.70;99.90
14682;DHT22;7429;52.498;13.480;2023-11-21T16:55:47;2.80;99.90
14682;DHT22;7429;52.498;13.480;2023-11-21T16:58:51;2.90;99.90
14682;DHT22;7429;52.498;13.480;2023-11-21T17:01:54;2.90;99.90
14682;DHT22;7429;52.498;13.480;2023-11-21T17:04:57;2.80;99.90
14682;DHT22;7429;52.498;13.480;2023-11-21T17:08:00;2.80;99.90
14682;DHT22;7429;52.498;13.480;2023-11-21T17:11:05;2.80;99.90
14682;DHT22;7429;52.498;13.480;2023-11-21T17:14:15;2.80;99.90
14682;DHT22;7429;52.498;13.480;2023-11-21T17:17:19;2.80;99.90
14682;DHT22;7429;52.498;13.480;2023-11-21T17:20:22;2.70;99.90
14682;DHT22;7429;52.498;13.480;2023-11-21T17:23:28;2.70;99.90
14682;DHT22;7429;52.498;13.480;2023-11-21T17:26:32;2.60;99.90
14682;DHT22;7429;52.498;13.480;2023-11-21T17:29:37;2.70;99.90
14682;DHT22;7429;52.498;13.480;2023-11-21T17:32:40;2.70;99.90
14682;DHT22;7429;52.498;13.480;2023-11-21T17:35:48;2.60;99.90
14682;DHT22;7429;52.498;13.480;2023-11-21T17:38:51;2.60;99.90
14682;DHT22;7429;52.498;13.480;2023-11-21T17:41:58;2.60;99.90
14682;DHT22;7429;52.498;13.480;2023-11-21T17:45:03;2.60;99.90
14682;DHT22;7429;52.498;13.480;2023-11-21T17:48:06;2.60;99.90
14682;DHT22;7429;52.498;13.480;2023-11-21T17:51:10;2.60;99.90
14682;DHT22;7429;52.498;13.480;2023-11-21T17:54:13;2.60;99.90
14682;DHT22;7429;52.498;13.480;2023-11-21T17:57:17;2.60;99.90
14682;DHT22;7429;52.498;13.480;2023-11-21T18:00:21;2.60;99.90
14682;DHT22;7429;52.498;13.480;2023-11-21T18:03:27;2.50;99.90
14682;DHT22;7429;52.498;13.480;2023-11-21T18:06:32;2.50;99.90
14682;DHT22;7429;52.498;13.480;2023-11-21T18:09:35;2.50;99.90
14682;DHT22;7429;52.498;13.480;2023-11-21T18:12:42;2.60;99.90
14682;DHT22;7429;52.498;13.480;2023-11-21T18:15:45;2.60;99.90
14682;DHT22;7429;52.498;13.480;2023-11-21T18:18:51;2.60;99.90
14682;DHT22;7429;52.498;13.480;2023-11-21T18:21:59;2.60;99.90
14682;DHT22;7429;52.498;13.480;2023-11-21T18:25:06;2.50;99.90
14682;DHT22;7429;52.498;13.480;2023-11-21T18:28:10;2.50;99.90
14682;DHT22;7429;52.498;13.480;2023-11-21T18:31:14;2.40;99.90
14682;DHT22;7429;52.498;13.480;2023-11-21T18:34:18;2.50;99.90
14682;DHT22;7429;52.498;13.480;2023-11-21T18:37:22;2.40;99.90
14682;DHT22;7429;52.498;13.480;2023-11-21T18:40:25;2.40;99.90
14682;DHT22;7429;52.498;13.480;2023-11-21T18:43:30;2.30;99.90
14682;DHT22;7429;52.498;13.480;2023-11-21T18:46:36;2.40;99.90
14682;DHT22;7429;52.498;13.480;2023-11-21T18:49:39;2.40;99.90
14682;DHT22;7429;52.498;13.480;2023-11-21T19:17:41;2.30;99.90
14682;DHT22;7429;52.498;13.480;2023-11-21T19:31:37;2.30;99.90
14682;DHT22;7429;52.498;13.480;2023-11-21T19:35:48;2.30;99.90
14682;DHT22;7429;52.498;13.480;2023-11-21T19:38:52;2.30;99.90
14682;DHT22;7429;52.498;13.480;2023-11-21T19:41:55;2.30;99.90
14682;DHT22;7429;52.498;13.480;2023-11-21T19:44:58;2.30;99.90
14682;DHT22;7429;52.498;13.480;2023-11-21T19:48:02;2.20;99.90
14682;DHT22;7429;52.498;13.480;2023-11-21T19:51:08;2.30;99.90
14682;DHT22;7429;52.498;13.480;2023-11-21T19:54:14;2.30;99.90
14682;DHT22;7429;52.498;13.480;2023-11-21T19:57:17;2.30;99.90
14682;DHT22;7429;52.498;13.480;2023-11-21T20:00:20;2.30;99.90
14682;DHT22;7429;52.498;13.480;2023-11-21T20:03:23;2.30;99.90
14682;DHT22;7429;52.498;13.480;2023-11-21T20:06:30;2.30;99.90
14682;DHT22;7429;52.498;13.480;2023-11-21T20:09:39;2.30;99.90
14682;DHT22;7429;52.498;13.480;2023-11-21T20:12:43;2.30;99.90
14682;DHT22;7429;52.498;13.480;2023-11-21T20:15:56;2.30;99.90
14682;DHT22;7429;52.498;13.480;2023-11-21T20:18:59;2.30;99.90
14682;DHT22;7429;52.498;13.480;2023-11-21T20:22:08;2.30;99.90
14682;DHT22;7429;52.498;13.480;2023-11-21T20:25:13;2.30;99.90
14682;DHT22;7429;52.498;13.480;2023-11-21T20:28:20;2.30;99.90
14682;DHT22;7429;52.498;13.480;2023-11-21T20:31:23;2.30;99.90
14682;DHT22;7429;52.498;13.480;2023-11-21T20:34:26;2.30;99.90
14682;DHT22;7429;52.498;13.480;2023-11-21T20:37:31;2.30;99.90
14682;DHT22;7429;52.498;13.480;2023-11-21T20:40:35;2.20;99.90
14682;DHT22;7429;52.498;13.480;2023-11-21T20:43:41;2.20;99.90
14682;DHT22;7429;52.498;13.480;2023-11-21T20:46:53;2.10;99.90
14682;DHT22;7429;52.498;13.480;2023-11-21T20:50:11;2.10;99.90
14682;DHT22;7429;52.498;13.480;2023-11-21T20:53:27;2.10;99.90
14682;DHT22;7429;52.498;13.480;2023-11-21T20:56:30;2.20;99.90